sensor_id;sensor_type;location;lat;lon;timestamp;P1;durP1;ratioP1;P2;durP2;ratioP2
4206;SDS011;2117;47.972;7.830;2022-12-22T02:31:37;2.47;;;1.07;;
4206;SDS011;2117;47.972;7.830;2022-12-22T02:34:22;2.73;;;0.80;;
4206;SDS011;2117;47.972;7.830;2022-12-22T02:37:22;4.60;;;0.90;;
4206;SDS011;2117;47.972;7.830;2022-12-22T02:43:43;1.60;;;1.00;;
4206;SDS011;2117;47.972;7.830;2022-12-22T02:46:30;2.67;;;0.90;;
4206;SDS011;2117;47.972;7.830;2022-12-22T02:49:26;3.77;;;1.10;;
4206;SDS011;2117;47.972;7.830;2022-12-22T02:52:35;4.33;;;1.23;;
4206;SDS011;2117;47.972;7.830;2022-12-22T02:55:23;3.03;;;1.30;;
4206;SDS011;2117;47.972;7.830;2022-12-22T02:58:10;4.50;;;1.33;;
4206;SDS011;2117;47.972;7.830;2022-12-22T03:00:54;2.50;;;1.30;;
4206;SDS011;2117;47.972;7.830;2022-12-22T03:03:38;5.53;;;1.40;;
4206;SDS011;2117;47.972;7.830;2022-12-22T03:06:22;3.43;;;1.03;;
4206;SDS011;2117;47.972;7.830;2022-12-22T03:09:06;8.07;;;1.10;;
4206;SDS011;2117;47.972;7.830;2022-12-22T03:11:51;4.50;;;1.67;;
4206;SDS011;2117;47.972;7.830;2022-12-22T03:14:35;6.70;;;1.10;;
4206;SDS011;2117;47.972;7.830;2022-12-22T03:17:19;3.93;;;1.20;;
4206;SDS011;2117;47.972;7.830;2022-12-22T03:20:03;4.80;;;1.20;;
4206;SDS011;2117;47.972;7.830;2022-12-22T03:22:47;7.03;;;1.53;;
4206;SDS011;2117;47.972;7.830;2022-12-22T03:25:32;6.90;;;1.83;;
4206;SDS011;2117;47.972;7.830;2022-12-22T03:28:16;5.87;;;1.40;;
4206;SDS011;2117;47.972;7.830;2022-12-22T03:30:42;4.30;;;1.13;;
4206;SDS011;2117;47.972;7.830;2022-12-22T03:33:08;6.97;;;1.33;;
4206;SDS011;2117;47.972;7.830;2022-12-22T03:35:33;5.07;;;1.87;;
4206;SDS011;2117;47.972;7.830;2022-12-22T03:37:59;2.40;;;1.07;;
4206;SDS011;2117;47.972;7.830;2022-12-22T03:40:27;17.47;;;2.13;;
4206;SDS011;2117;47.972;7.830;2022-12-22T03:42:56;3.43;;;1.17;;
4206;SDS011;2117;47.972;7.830;2022-12-22T03:45:40;5.33;;;1.93;;
4206;SDS011;2117;47.972;7.830;2022-12-22T03:48:24;3.53;;;1.40;;
4206;SDS011;2117;47.972;7.830;2022-12-22T03:50:49;6.00;;;1.43;;
4206;SDS011;2117;47.972;7.830;2022-12-22T03:53:15;5.20;;;1.50;;
4206;SDS011;2117;47.972;7.830;2022-12-22T03:55:40;2.67;;;1.27;;
4206;SDS011;2117;47.972;7.830;2022-12-22T03:58:07;6.13;;;1.53;;
4206;SDS011;2117;47.972;7.830;2022-12-22T04:00:33;8.30;;;1.90;;
4206;SDS011;2117;47.972;7.830;2022-12-22T04:02:58;6.30;;;2.10;;
4206;SDS011;2117;47.972;7.830;2022-12-22T04:05:24;6.90;;;1.50;;
4206;SDS011;2117;47.972;7.830;2022-12-22T04:07:50;5.77;;;1.10;;
4206;SDS011;2117;47.972;7.830;2022-12-22T04:10:16;2.63;;;1.30;;
4206;SDS011;2117;47.972;7.830;2022-12-22T04:13:00;5.27;;;1.50;;
4206;SDS011;2117;47.972;7.830;2022-12-22T04:15:26;7.27;;;1.60;;
4206;SDS011;2117;47.972;7.830;2022-12-22T04:17:53;5.70;;;1.90;;
4206;SDS011;2117;47.972;7.830;2022-12-22T04:20:19;4.40;;;1.70;;
4206;SDS011;2117;47.972;7.830;2022-12-22T04:22:46;11.40;;;2.43;;
4206;SDS011;2117;47.972;7.830;2022-12-22T04:25:12;4.53;;;1.87;;
4206;SDS011;2117;47.972;7.830;2022-12-22T04:27:39;7.50;;;2.37;;
4206;SDS011;2117;47.972;7.830;2022-12-22T04:30:05;7.20;;;1.47;;
4206;SDS011;2117;47.972;7.830;2022-12-22T04:32:31;7.50;;;1.50;;
4206;SDS011;2117;47.972;7.830;2022-12-22T04:34:57;11.93;;;2.90;;
4206;SDS011;2117;47.972;7.830;2022-12-22T04:37:23;6.87;;;1.63;;
4206;SDS011;2117;47.972;7.830;2022-12-22T04:39:48;11.33;;;4.10;;
4206;SDS011;2117;47.972;7.830;2022-12-22T04:42:14;9.33;;;1.87;;
4206;SDS011;2117;47.972;7.830;2022-12-22T04:44:39;9.80;;;1.57;;
4206;SDS011;2117;47.972;7.830;2022-12-22T04:47:05;6.27;;;1.80;;
4206;SDS011;2117;47.972;7.830;2022-12-22T04:49:31;14.53;;;2.10;;
4206;SDS011;2117;47.972;7.830;2022-12-22T04:51:56;6.20;;;2.30;;
4206;SDS011;2117;47.972;7.830;2022-12-22T04:54:22;7.70;;;1.33;;
4206;SDS011;2117;47.972;7.830;2022-12-22T04:56:47;8.03;;;2.30;;
4206;SDS011;2117;47.972;7.830;2022-12-22T04:59:14;10.83;;;2.40;;
4206;SDS011;2117;47.972;7.830;2022-12-22T05:01:39;11.50;;;2.40;;
4206;SDS011;2117;47.972;7.830;2022-12-22T05:04:05;6.40;;;1.77;;
4206;SDS011;2117;47.972;7.830;2022-12-22T05:06:30;10.33;;;2.17;;
4206;SDS011;2117;47.972;7.830;2022-12-22T05:08:56;6.23;;;1.40;;
4206;SDS011;2117;47.972;7.830;2022-12-22T05:11:21;6.10;;;2.00;;
4206;SDS011;2117;47.972;7.830;2022-12-22T05:13:47;5.77;;;1.47;;
4206;SDS011;2117;47.972;7.830;2022-12-22T05:16:13;10.90;;;1.67;;
4206;SDS011;2117;47.972;7.830;2022-12-22T05:18:40;4.83;;;1.40;;
4206;SDS011;2117;47.972;7.830;2022-12-22T05:21:15;10.10;;;1.50;;
4206;SDS011;2117;47.972;7.830;2022-12-22T05:23:43;7.17;;;2.80;;
4206;SDS011;2117;47.972;7.830;2022-12-22T05:26:09;5.93;;;1.97;;
4206;SDS011;2117;47.972;7.830;2022-12-22T05:28:35;6.13;;;1.60;;
4206;SDS011;2117;47.972;7.830;2022-12-22T05:31:20;10.13;;;3.00;;
4206;SDS011;2117;47.972;7.830;2022-12-22T05:33:47;5.67;;;1.90;;
4206;SDS011;2117;47.972;7.830;2022-12-22T05:36:13;10.67;;;1.93;;
4206;SDS011;2117;47.972;7.830;2022-12-22T05:38:39;7.00;;;1.87;;
4206;SDS011;2117;47.972;7.830;2022-12-22T05:41:05;7.63;;;1.83;;
4206;SDS011;2117;47.972;7.830;2022-12-22T05:43:32;6.90;;;1.60;;
4206;SDS011;2117;47.972;7.830;2022-12-22T05:46:02;11.73;;;1.93;;
4206;SDS011;2117;47.972;7.830;2022-12-22T05:48:30;9.10;;;2.53;;
4206;SDS011;2117;47.972;7.830;2022-12-22T05:50:55;2.80;;;1.37;;
4206;SDS011;2117;47.972;7.830;2022-12-22T05:53:21;3.93;;;1.30;;
4206;SDS011;2117;47.972;7.830;2022-12-22T05:55:46;5.20;;;1.80;;
4206;SDS011;2117;47.972;7.830;2022-12-22T05:58:12;4.37;;;1.73;;
4206;SDS011;2117;47.972;7.830;2022-12-22T06:00:37;9.53;;;2.10;;
4206;SDS011;2117;47.972;7.830;2022-12-22T06:03:03;10.17;;;1.70;;
4206;SDS011;2117;47.972;7.830;2022-12-22T06:05:29;10.50;;;1.80;;
4206;SDS011;2117;47.972;7.830;2022-12-22T06:07:54;7.17;;;1.97;;
4206;SDS011;2117;47.972;7.830;2022-12-22T06:10:20;6.07;;;1.60;;
4206;SDS011;2117;47.972;7.830;2022-12-22T06:12:45;4.60;;;1.50;;
4206;SDS011;2117;47.972;7.830;2022-12-22T06:15:12;11.90;;;2.53;;
4206;SDS011;2117;47.972;7.830;2022-12-22T06:17:39;9.33;;;2.40;;
4206;SDS011;2117;47.972;7.830;2022-12-22T06:20:05;10.73;;;2.20;;
4206;SDS011;2117;47.972;7.830;2022-12-22T06:22:31;8.77;;;2.47;;
4206;SDS011;2117;47.972;7.830;2022-12-22T06:24:57;9.03;;;2.43;;
4206;SDS011;2117;47.972;7.830;2022-12-22T06:27:23;7.27;;;2.50;;
4206;SDS011;2117;47.972;7.830;2022-12-22T06:29:48;13.10;;;2.90;;
4206;SDS011;2117;47.972;7.830;2022-12-22T06:32:14;11.77;;;2.70;;
4206;SDS011;2117;47.972;7.830;2022-12-22T06:34:40;10.07;;;2.23;;
4206;SDS011;2117;47.972;7.830;2022-12-22T06:37:05;9.40;;;1.83;;
4206;SDS011;2117;47.972;7.830;2022-12-22T06:39:31;8.80;;;3.20;;
4206;SDS011;2117;47.972;7.830;2022-12-22T06:41:56;8.57;;;1.90;;
4206;SDS011;2117;47.972;7.830;2022-12-22T06:44:40;19.83;;;2.40;;
4206;SDS011;2117;47.972;7.830;2022-12-22T06:47:06;16.90;;;2.47;;
4206;SDS011;2117;47.972;7.830;2022-12-22T06:49:31;11.43;;;2.63;;
4206;SDS011;2117;47.972;7.830;2022-12-22T06:51:57;10.30;;;2.70;;
4206;SDS011;2117;47.972;7.830;2022-12-22T06:54:23;7.60;;;2.23;;
4206;SDS011;2117;47.972;7.830;2022-12-22T06:56:48;8.33;;;2.30;;
4206;SDS011;2117;47.972;7.830;2022-12-22T06:59:14;9.30;;;2.50;;
4206;SDS011;2117;47.972;7.830;2022-12-22T07:01:39;11.43;;;2.43;;
4206;SDS011;2117;47.972;7.830;2022-12-22T07:04:06;12.77;;;2.47;;
4206;SDS011;2117;47.972;7.830;2022-12-22T07:06:32;9.07;;;2.20;;
4206;SDS011;2117;47.972;7.830;2022-12-22T07:08:58;11.00;;;2.30;;
4206;SDS011;2117;47.972;7.830;2022-12-22T07:11:23;10.57;;;2.90;;
4206;SDS011;2117;47.972;7.830;2022-12-22T07:13:49;5.53;;;1.70;;
4206;SDS011;2117;47.972;7.830;2022-12-22T07:16:15;7.20;;;1.73;;
4206;SDS011;2117;47.972;7.830;2022-12-22T07:18:41;7.63;;;1.80;;
4206;SDS011;2117;47.972;7.830;2022-12-22T07:21:11;6.70;;;1.97;;
4206;SDS011;2117;47.972;7.830;2022-12-22T07:23:38;7.33;;;2.60;;
4206;SDS011;2117;47.972;7.830;2022-12-22T07:26:05;12.33;;;3.30;;
4206;SDS011;2117;47.972;7.830;2022-12-22T07:28:32;7.77;;;2.07;;
4206;SDS011;2117;47.972;7.830;2022-12-22T07:30:59;9.00;;;2.50;;
4206;SDS011;2117;47.972;7.830;2022-12-22T07:33:25;5.33;;;1.37;;
4206;SDS011;2117;47.972;7.830;2022-12-22T07:36:04;11.30;;;3.00;;
4206;SDS011;2117;47.972;7.830;2022-12-22T07:38:30;11.37;;;2.27;;
4206;SDS011;2117;47.972;7.830;2022-12-22T07:40:57;6.20;;;2.10;;
4206;SDS011;2117;47.972;7.830;2022-12-22T07:43:23;10.00;;;1.77;;
4206;SDS011;2117;47.972;7.830;2022-12-22T07:45:49;15.63;;;2.37;;
4206;SDS011;2117;47.972;7.830;2022-12-22T07:48:14;13.40;;;3.10;;
4206;SDS011;2117;47.972;7.830;2022-12-22T07:51:00;8.37;;;1.90;;
4206;SDS011;2117;47.972;7.830;2022-12-22T07:53:27;8.93;;;2.00;;
4206;SDS011;2117;47.972;7.830;2022-12-22T07:55:53;11.33;;;2.00;;
4206;SDS011;2117;47.972;7.830;2022-12-22T07:58:18;5.27;;;1.73;;
4206;SDS011;2117;47.972;7.830;2022-12-22T08:00:44;11.80;;;2.73;;
4206;SDS011;2117;47.972;7.830;2022-12-22T08:03:10;8.13;;;1.70;;
4206;SDS011;2117;47.972;7.830;2022-12-22T08:05:35;8.00;;;2.57;;
4206;SDS011;2117;47.972;7.830;2022-12-22T08:08:01;7.70;;;2.13;;
4206;SDS011;2117;47.972;7.830;2022-12-22T08:10:27;9.83;;;2.23;;
4206;SDS011;2117;47.972;7.830;2022-12-22T08:12:53;10.53;;;2.60;;
4206;SDS011;2117;47.972;7.830;2022-12-22T08:15:18;8.00;;;2.20;;
4206;SDS011;2117;47.972;7.830;2022-12-22T08:17:44;12.33;;;4.10;;
4206;SDS011;2117;47.972;7.830;2022-12-22T08:20:10;5.60;;;2.70;;
4206;SDS011;2117;47.972;7.830;2022-12-22T08:22:35;12.87;;;2.50;;
4206;SDS011;2117;47.972;7.830;2022-12-22T08:25:01;7.17;;;2.37;;
4206;SDS011;2117;47.972;7.830;2022-12-22T08:27:29;8.53;;;2.60;;
4206;SDS011;2117;47.972;7.830;2022-12-22T08:30:03;9.20;;;2.30;;
4206;SDS011;2117;47.972;7.830;2022-12-22T08:32:31;14.63;;;2.57;;
4206;SDS011;2117;47.972;7.830;2022-12-22T08:34:57;17.57;;;2.80;;
4206;SDS011;2117;47.972;7.830;2022-12-22T08:37:24;6.47;;;2.80;;
4206;SDS011;2117;47.972;7.830;2022-12-22T08:39:53;15.73;;;2.73;;
4206;SDS011;2117;47.972;7.830;2022-12-22T08:42:21;10.97;;;4.33;;
4206;SDS011;2117;47.972;7.830;2022-12-22T08:44:48;9.73;;;2.70;;
4206;SDS011;2117;47.972;7.830;2022-12-22T08:47:17;7.70;;;2.43;;
4206;SDS011;2117;47.972;7.830;2022-12-22T08:49:46;12.73;;;2.60;;
4206;SDS011;2117;47.972;7.830;2022-12-22T08:52:12;9.33;;;2.00;;
4206;SDS011;2117;47.972;7.830;2022-12-22T08:54:38;12.43;;;2.63;;
4206;SDS011;2117;47.972;7.830;2022-12-22T08:57:04;15.30;;;3.50;;
4206;SDS011;2117;47.972;7.830;2022-12-22T08:59:29;7.23;;;2.60;;
4206;SDS011;2117;47.972;7.830;2022-12-22T09:01:55;11.87;;;2.07;;
4206;SDS011;2117;47.972;7.830;2022-12-22T09:04:21;21.67;;;3.60;;
4206;SDS011;2117;47.972;7.830;2022-12-22T09:06:50;9.30;;;2.50;;
4206;SDS011;2117;47.972;7.830;2022-12-22T09:09:17;7.10;;;1.73;;
4206;SDS011;2117;47.972;7.830;2022-12-22T09:11:42;13.77;;;2.43;;
4206;SDS011;2117;47.972;7.830;2022-12-22T09:14:09;10.07;;;2.80;;
4206;SDS011;2117;47.972;7.830;2022-12-22T09:16:35;11.53;;;3.07;;
4206;SDS011;2117;47.972;7.830;2022-12-22T09:19:01;17.00;;;3.00;;
4206;SDS011;2117;47.972;7.830;2022-12-22T09:21:29;10.70;;;3.03;;
4206;SDS011;2117;47.972;7.830;2022-12-22T09:23:55;17.20;;;3.37;;
4206;SDS011;2117;47.972;7.830;2022-12-22T09:26:21;11.63;;;3.37;;
4206;SDS011;2117;47.972;7.830;2022-12-22T09:28:48;16.20;;;4.20;;
4206;SDS011;2117;47.972;7.830;2022-12-22T09:31:14;16.77;;;5.03;;
4206;SDS011;2117;47.972;7.830;2022-12-22T09:33:40;23.47;;;4.07;;
4206;SDS011;2117;47.972;7.830;2022-12-22T09:36:06;12.63;;;2.60;;
4206;SDS011;2117;47.972;7.830;2022-12-22T09:38:34;22.73;;;4.20;;
4206;SDS011;2117;47.972;7.830;2022-12-22T09:41:17;16.30;;;4.40;;
4206;SDS011;2117;47.972;7.830;2022-12-22T09:43:50;14.50;;;3.00;;
4206;SDS011;2117;47.972;7.830;2022-12-22T09:46:25;11.63;;;3.37;;
4206;SDS011;2117;47.972;7.830;2022-12-22T09:48:54;20.80;;;4.60;;
4206;SDS011;2117;47.972;7.830;2022-12-22T09:51:20;18.10;;;3.60;;
4206;SDS011;2117;47.972;7.830;2022-12-22T09:53:49;15.60;;;3.40;;
4206;SDS011;2117;47.972;7.830;2022-12-22T09:56:17;14.40;;;3.10;;
4206;SDS011;2117;47.972;7.830;2022-12-22T09:58:44;14.07;;;3.40;;
4206;SDS011;2117;47.972;7.830;2022-12-22T10:01:29;18.63;;;3.70;;
4206;SDS011;2117;47.972;7.830;2022-12-22T10:04:13;12.63;;;2.80;;
4206;SDS011;2117;47.972;7.830;2022-12-22T10:10:21;24.33;;;3.53;;
4206;SDS011;2117;47.972;7.830;2022-12-22T10:12:48;11.30;;;3.27;;
4206;SDS011;2117;47.972;7.830;2022-12-22T10:15:22;15.90;;;3.73;;
4206;SDS011;2117;47.972;7.830;2022-12-22T10:17:49;12.27;;;3.00;;
4206;SDS011;2117;47.972;7.830;2022-12-22T10:22:52;9.10;;;2.40;;
4206;SDS011;2117;47.972;7.830;2022-12-22T10:25:22;9.57;;;2.90;;
4206;SDS011;2117;47.972;7.830;2022-12-22T10:27:54;12.43;;;2.90;;
4206;SDS011;2117;47.972;7.830;2022-12-22T10:30:23;12.97;;;3.07;;
4206;SDS011;2117;47.972;7.830;2022-12-22T10:33:03;15.70;;;3.77;;
4206;SDS011;2117;47.972;7.830;2022-12-22T10:35:53;13.37;;;3.17;;
4206;SDS011;2117;47.972;7.830;2022-12-22T10:38:26;14.77;;;2.80;;
4206;SDS011;2117;47.972;7.830;2022-12-22T10:40:55;7.80;;;2.90;;
4206;SDS011;2117;47.972;7.830;2022-12-22T10:43:46;13.97;;;3.60;;
4206;SDS011;2117;47.972;7.830;2022-12-22T10:46:14;13.93;;;2.97;;
4206;SDS011;2117;47.972;7.830;2022-12-22T10:48:40;12.57;;;3.23;;
4206;SDS011;2117;47.972;7.830;2022-12-22T10:51:08;8.27;;;2.80;;
4206;SDS011;2117;47.972;7.830;2022-12-22T10:53:56;15.43;;;3.27;;
4206;SDS011;2117;47.972;7.830;2022-12-22T10:56:23;12.53;;;2.90;;
4206;SDS011;2117;47.972;7.830;2022-12-22T10:59:12;9.70;;;2.83;;
4206;SDS011;2117;47.972;7.830;2022-12-22T11:01:44;14.57;;;2.40;;
4206;SDS011;2117;47.972;7.830;2022-12-22T11:04:25;7.00;;;1.80;;
4206;SDS011;2117;47.972;7.830;2022-12-22T11:06:52;7.37;;;1.80;;
4206;SDS011;2117;47.972;7.830;2022-12-22T11:09:20;13.33;;;2.17;;
4206;SDS011;2117;47.972;7.830;2022-12-22T11:17:23;9.63;;;2.10;;
4206;SDS011;2117;47.972;7.830;2022-12-22T11:22:35;15.73;;;2.43;;
4206;SDS011;2117;47.972;7.830;2022-12-22T11:28:18;25.87;;;3.50;;
4206;SDS011;2117;47.972;7.830;2022-12-22T11:30:59;12.43;;;2.70;;
4206;SDS011;2117;47.972;7.830;2022-12-22T11:35:58;16.50;;;4.03;;
4206;SDS011;2117;47.972;7.830;2022-12-22T11:47:13;12.90;;;3.60;;
4206;SDS011;2117;47.972;7.830;2022-12-22T11:50:00;19.47;;;4.10;;
4206;SDS011;2117;47.972;7.830;2022-12-22T11:55:59;28.57;;;4.80;;
4206;SDS011;2117;47.972;7.830;2022-12-22T12:01:28;23.27;;;3.63;;
4206;SDS011;2117;47.972;7.830;2022-12-22T12:15:19;21.83;;;3.87;;
4206;SDS011;2117;47.972;7.830;2022-12-22T12:29:19;17.03;;;3.40;;
4206;SDS011;2117;47.972;7.830;2022-12-22T12:34:20;13.20;;;2.53;;
4206;SDS011;2117;47.972;7.830;2022-12-22T12:44:48;18.73;;;3.60;;
4206;SDS011;2117;47.972;7.830;2022-12-22T12:47:20;15.00;;;3.10;;
4206;SDS011;2117;47.972;7.830;2022-12-22T12:57:50;14.20;;;3.80;;
4206;SDS011;2117;47.972;7.830;2022-12-22T13:08:14;15.93;;;4.13;;
4206;SDS011;2117;47.972;7.830;2022-12-22T13:21:07;11.70;;;3.20;;
4206;SDS011;2117;47.972;7.830;2022-12-22T13:23:57;15.73;;;3.50;;
4206;SDS011;2117;47.972;7.830;2022-12-22T13:26:37;19.90;;;4.10;;
4206;SDS011;2117;47.972;7.830;2022-12-22T13:32:02;14.10;;;3.53;;
4206;SDS011;2117;47.972;7.830;2022-12-22T13:34:41;22.93;;;5.80;;
4206;SDS011;2117;47.972;7.830;2022-12-22T13:37:15;12.00;;;3.70;;
4206;SDS011;2117;47.972;7.830;2022-12-22T13:42:45;16.93;;;4.37;;
4206;SDS011;2117;47.972;7.830;2022-12-22T13:45:19;17.03;;;4.00;;
4206;SDS011;2117;47.972;7.830;2022-12-22T13:47:55;15.97;;;5.17;;
4206;SDS011;2117;47.972;7.830;2022-12-22T13:50:32;20.37;;;4.23;;
4206;SDS011;2117;47.972;7.830;2022-12-22T13:53:01;25.23;;;4.40;;
4206;SDS011;2117;47.972;7.830;2022-12-22T13:55:30;16.97;;;4.30;;
4206;SDS011;2117;47.972;7.830;2022-12-22T13:57:59;13.23;;;3.40;;
4206;SDS011;2117;47.972;7.830;2022-12-22T14:00:33;17.27;;;4.10;;
4206;SDS011;2117;47.972;7.830;2022-12-22T14:02:58;20.87;;;5.10;;
4206;SDS011;2117;47.972;7.830;2022-12-22T14:05:28;17.23;;;3.80;;
4206;SDS011;2117;47.972;7.830;2022-12-22T14:07:59;27.03;;;6.80;;
4206;SDS011;2117;47.972;7.830;2022-12-22T14:10:47;26.70;;;6.20;;
4206;SDS011;2117;47.972;7.830;2022-12-22T14:13:20;14.57;;;4.93;;
4206;SDS011;2117;47.972;7.830;2022-12-22T14:15:58;22.77;;;6.10;;
4206;SDS011;2117;47.972;7.830;2022-12-22T14:18:29;20.57;;;4.60;;
4206;SDS011;2117;47.972;7.830;2022-12-22T14:20:56;20.63;;;4.50;;
4206;SDS011;2117;47.972;7.830;2022-12-22T14:23:29;30.90;;;5.07;;
4206;SDS011;2117;47.972;7.830;2022-12-22T14:26:03;23.90;;;5.43;;
4206;SDS011;2117;47.972;7.830;2022-12-22T14:28:36;22.77;;;6.13;;
4206;SDS011;2117;47.972;7.830;2022-12-22T14:31:07;23.23;;;6.27;;
4206;SDS011;2117;47.972;7.830;2022-12-22T14:33:37;27.87;;;7.27;;
4206;SDS011;2117;47.972;7.830;2022-12-22T14:38:38;17.83;;;4.87;;
4206;SDS011;2117;47.972;7.830;2022-12-22T14:41:08;28.07;;;4.93;;
4206;SDS011;2117;47.972;7.830;2022-12-22T14:44:02;18.30;;;4.43;;
4206;SDS011;2117;47.972;7.830;2022-12-22T14:46:29;24.60;;;4.93;;
4206;SDS011;2117;47.972;7.830;2022-12-22T14:48:56;23.80;;;4.80;;
4206;SDS011;2117;47.972;7.830;2022-12-22T14:51:23;29.40;;;7.13;;
4206;SDS011;2117;47.972;7.830;2022-12-22T14:53:54;25.13;;;5.93;;
4206;SDS011;2117;47.972;7.830;2022-12-22T14:56:21;22.13;;;4.30;;
4206;SDS011;2117;47.972;7.830;2022-12-22T14:58:48;16.57;;;3.67;;
4206;SDS011;2117;47.972;7.830;2022-12-22T15:01:25;25.33;;;3.83;;
4206;SDS011;2117;47.972;7.830;2022-12-22T15:03:56;26.93;;;5.13;;
4206;SDS011;2117;47.972;7.830;2022-12-22T15:06:33;18.73;;;4.40;;
4206;SDS011;2117;47.972;7.830;2022-12-22T15:11:33;16.60;;;4.03;;
4206;SDS011;2117;47.972;7.830;2022-12-22T15:14:01;14.30;;;3.70;;
4206;SDS011;2117;47.972;7.830;2022-12-22T15:16:34;15.03;;;3.10;;
4206;SDS011;2117;47.972;7.830;2022-12-22T15:19:00;25.47;;;4.90;;
4206;SDS011;2117;47.972;7.830;2022-12-22T15:21:26;18.73;;;4.57;;
4206;SDS011;2117;47.972;7.830;2022-12-22T15:23:51;17.80;;;3.53;;
4206;SDS011;2117;47.972;7.830;2022-12-22T15:26:17;17.30;;;4.07;;
4206;SDS011;2117;47.972;7.830;2022-12-22T15:28:42;13.60;;;4.33;;
4206;SDS011;2117;47.972;7.830;2022-12-22T15:31:14;15.63;;;3.50;;
4206;SDS011;2117;47.972;7.830;2022-12-22T15:33:41;25.73;;;4.20;;
4206;SDS011;2117;47.972;7.830;2022-12-22T15:36:11;14.00;;;4.10;;
4206;SDS011;2117;47.972;7.830;2022-12-22T15:38:38;13.20;;;3.70;;
4206;SDS011;2117;47.972;7.830;2022-12-22T15:41:04;15.20;;;4.30;;
4206;SDS011;2117;47.972;7.830;2022-12-22T15:43:30;10.83;;;2.93;;
4206;SDS011;2117;47.972;7.830;2022-12-22T15:45:56;9.23;;;4.37;;
4206;SDS011;2117;47.972;7.830;2022-12-22T15:48:29;16.50;;;3.03;;
4206;SDS011;2117;47.972;7.830;2022-12-22T15:50:57;15.60;;;3.27;;
4206;SDS011;2117;47.972;7.830;2022-12-22T15:53:24;12.03;;;2.90;;
4206;SDS011;2117;47.972;7.830;2022-12-22T15:55:51;17.03;;;4.10;;
4206;SDS011;2117;47.972;7.830;2022-12-22T15:58:22;12.33;;;3.00;;
4206;SDS011;2117;47.972;7.830;2022-12-22T16:00:51;10.93;;;2.63;;
4206;SDS011;2117;47.972;7.830;2022-12-22T16:03:16;14.60;;;3.70;;
4206;SDS011;2117;47.972;7.830;2022-12-22T16:05:42;14.03;;;3.03;;
4206;SDS011;2117;47.972;7.830;2022-12-22T16:08:16;10.40;;;3.27;;
4206;SDS011;2117;47.972;7.830;2022-12-22T16:10:46;12.17;;;3.77;;
4206;SDS011;2117;47.972;7.830;2022-12-22T16:13:14;13.30;;;3.37;;
4206;SDS011;2117;47.972;7.830;2022-12-22T16:15:40;9.67;;;3.37;;
4206;SDS011;2117;47.972;7.830;2022-12-22T16:18:06;12.13;;;3.40;;
4206;SDS011;2117;47.972;7.830;2022-12-22T16:20:36;11.83;;;3.10;;
4206;SDS011;2117;47.972;7.830;2022-12-22T16:23:04;9.93;;;3.10;;
4206;SDS011;2117;47.972;7.830;2022-12-22T16:25:32;11.53;;;3.73;;
4206;SDS011;2117;47.972;7.830;2022-12-22T16:28:00;7.83;;;2.67;;
4206;SDS011;2117;47.972;7.830;2022-12-22T16:30:28;20.10;;;3.20;;
4206;SDS011;2117;47.972;7.830;2022-12-22T16:32:55;15.00;;;3.07;;
4206;SDS011;2117;47.972;7.830;2022-12-22T16:35:27;11.17;;;2.53;;
4206;SDS011;2117;47.972;7.830;2022-12-22T16:37:54;17.73;;;2.60;;
4206;SDS011;2117;47.972;7.830;2022-12-22T16:40:21;15.97;;;4.00;;
4206;SDS011;2117;47.972;7.830;2022-12-22T16:42:48;14.87;;;3.63;;
4206;SDS011;2117;47.972;7.830;2022-12-22T16:45:21;9.43;;;2.33;;
4206;SDS011;2117;47.972;7.830;2022-12-22T16:47:50;15.67;;;3.47;;
4206;SDS011;2117;47.972;7.830;2022-12-22T16:50:19;11.43;;;3.10;;
4206;SDS011;2117;47.972;7.830;2022-12-22T16:52:47;16.63;;;3.30;;
4206;SDS011;2117;47.972;7.830;2022-12-22T16:55:18;8.90;;;2.87;;
4206;SDS011;2117;47.972;7.830;2022-12-22T16:57:45;12.80;;;3.30;;
4206;SDS011;2117;47.972;7.830;2022-12-22T17:00:29;14.30;;;4.17;;
4206;SDS011;2117;47.972;7.830;2022-12-22T17:03:03;10.13;;;2.73;;
4206;SDS011;2117;47.972;7.830;2022-12-22T17:05:36;13.40;;;3.00;;
4206;SDS011;2117;47.972;7.830;2022-12-22T17:08:07;12.30;;;2.77;;
4206;SDS011;2117;47.972;7.830;2022-12-22T17:10:41;11.53;;;4.10;;
4206;SDS011;2117;47.972;7.830;2022-12-22T17:13:07;21.03;;;3.90;;
4206;SDS011;2117;47.972;7.830;2022-12-22T17:15:34;11.90;;;4.27;;
4206;SDS011;2117;47.972;7.830;2022-12-22T17:18:00;9.90;;;2.87;;
4206;SDS011;2117;47.972;7.830;2022-12-22T17:20:27;11.30;;;3.53;;
4206;SDS011;2117;47.972;7.830;2022-12-22T17:22:54;6.60;;;2.20;;
4206;SDS011;2117;47.972;7.830;2022-12-22T17:25:23;11.73;;;4.37;;
4206;SDS011;2117;47.972;7.830;2022-12-22T17:27:56;10.10;;;2.77;;
4206;SDS011;2117;47.972;7.830;2022-12-22T17:30:25;12.30;;;3.63;;
4206;SDS011;2117;47.972;7.830;2022-12-22T17:32:51;9.23;;;2.57;;
4206;SDS011;2117;47.972;7.830;2022-12-22T17:35:18;11.00;;;2.90;;
4206;SDS011;2117;47.972;7.830;2022-12-22T17:37:47;27.37;;;2.83;;
4206;SDS011;2117;47.972;7.830;2022-12-22T17:40:21;17.73;;;3.67;;
4206;SDS011;2117;47.972;7.830;2022-12-22T17:42:50;11.03;;;2.97;;
4206;SDS011;2117;47.972;7.830;2022-12-22T17:45:16;11.77;;;2.67;;
4206;SDS011;2117;47.972;7.830;2022-12-22T17:47:42;12.83;;;2.57;;
4206;SDS011;2117;47.972;7.830;2022-12-22T17:50:10;20.00;;;2.97;;
4206;SDS011;2117;47.972;7.830;2022-12-22T17:52:37;17.70;;;4.17;;
4206;SDS011;2117;47.972;7.830;2022-12-22T17:55:03;19.33;;;5.30;;
4206;SDS011;2117;47.972;7.830;2022-12-22T17:57:33;11.90;;;3.10;;
4206;SDS011;2117;47.972;7.830;2022-12-22T18:00:00;13.17;;;3.53;;
4206;SDS011;2117;47.972;7.830;2022-12-22T18:02:26;12.37;;;3.50;;
4206;SDS011;2117;47.972;7.830;2022-12-22T18:04:52;13.67;;;4.47;;
4206;SDS011;2117;47.972;7.830;2022-12-22T18:07:18;10.40;;;3.30;;
4206;SDS011;2117;47.972;7.830;2022-12-22T18:09:46;18.47;;;2.87;;
4206;SDS011;2117;47.972;7.830;2022-12-22T18:12:17;19.33;;;7.70;;
4206;SDS011;2117;47.972;7.830;2022-12-22T18:14:45;10.83;;;3.40;;
4206;SDS011;2117;47.972;7.830;2022-12-22T18:17:17;13.13;;;3.20;;
4206;SDS011;2117;47.972;7.830;2022-12-22T18:19:49;16.17;;;3.20;;
4206;SDS011;2117;47.972;7.830;2022-12-22T18:22:19;9.77;;;3.13;;
4206;SDS011;2117;47.972;7.830;2022-12-22T18:24:50;9.80;;;5.07;;
4206;SDS011;2117;47.972;7.830;2022-12-22T18:27:17;6.97;;;2.77;;
4206;SDS011;2117;47.972;7.830;2022-12-22T18:29:43;13.50;;;3.10;;
4206;SDS011;2117;47.972;7.830;2022-12-22T18:32:11;7.60;;;2.77;;
4206;SDS011;2117;47.972;7.830;2022-12-22T18:34:37;13.93;;;2.90;;
4206;SDS011;2117;47.972;7.830;2022-12-22T18:37:04;10.97;;;2.73;;
4206;SDS011;2117;47.972;7.830;2022-12-22T18:39:35;12.60;;;3.17;;
4206;SDS011;2117;47.972;7.830;2022-12-22T18:42:01;18.87;;;2.97;;
4206;SDS011;2117;47.972;7.830;2022-12-22T18:44:27;15.10;;;2.40;;
4206;SDS011;2117;47.972;7.830;2022-12-22T18:46:52;9.33;;;1.97;;
4206;SDS011;2117;47.972;7.830;2022-12-22T18:49:18;10.00;;;3.07;;
4206;SDS011;2117;47.972;7.830;2022-12-22T18:51:43;13.00;;;3.50;;
4206;SDS011;2117;47.972;7.830;2022-12-22T18:54:20;8.07;;;2.47;;
4206;SDS011;2117;47.972;7.830;2022-12-22T18:57:00;10.63;;;2.90;;
4206;SDS011;2117;47.972;7.830;2022-12-22T18:59:26;11.50;;;3.23;;
4206;SDS011;2117;47.972;7.830;2022-12-22T19:01:55;15.27;;;3.40;;
4206;SDS011;2117;47.972;7.830;2022-12-22T19:04:26;16.67;;;3.00;;
4206;SDS011;2117;47.972;7.830;2022-12-22T19:06:52;12.50;;;3.03;;
4206;SDS011;2117;47.972;7.830;2022-12-22T19:09:17;10.37;;;2.80;;
4206;SDS011;2117;47.972;7.830;2022-12-22T19:11:43;14.33;;;2.90;;
4206;SDS011;2117;47.972;7.830;2022-12-22T19:14:16;15.40;;;2.97;;
4206;SDS011;2117;47.972;7.830;2022-12-22T19:16:43;12.17;;;5.10;;
4206;SDS011;2117;47.972;7.830;2022-12-22T19:19:16;9.57;;;2.87;;
4206;SDS011;2117;47.972;7.830;2022-12-22T19:21:43;11.40;;;3.73;;
4206;SDS011;2117;47.972;7.830;2022-12-22T19:24:09;15.03;;;2.90;;
4206;SDS011;2117;47.972;7.830;2022-12-22T19:26:35;7.10;;;2.40;;
4206;SDS011;2117;47.972;7.830;2022-12-22T19:29:00;12.83;;;3.00;;
4206;SDS011;2117;47.972;7.830;2022-12-22T19:31:28;15.80;;;3.90;;
4206;SDS011;2117;47.972;7.830;2022-12-22T19:33:58;9.57;;;3.30;;
4206;SDS011;2117;47.972;7.830;2022-12-22T19:36:26;17.67;;;3.13;;
4206;SDS011;2117;47.972;7.830;2022-12-22T19:38:53;15.40;;;3.93;;
4206;SDS011;2117;47.972;7.830;2022-12-22T19:44:17;14.53;;;3.27;;
4206;SDS011;2117;47.972;7.830;2022-12-22T19:46:45;17.60;;;3.63;;